sensor_id;sensor_type;location;lat;lon;timestamp;pressure;altitude;pressure_sealevel;temperature;humidity
66398;BME280;54877;51.504;3.894;2023-04-30T00:00:28;102404.09;;;13.05;56.38
66398;BME280;54877;51.504;3.894;2023-04-30T00:02:54;102398.84;;;13.03;56.54
66398;BME280;54877;51.504;3.894;2023-04-30T00:05:19;102408.59;;;13.03;56.43
66398;BME280;54877;51.504;3.894;2023-04-30T00:07:45;102396.13;;;13.05;56.46
66398;BME280;54877;51.504;3.894;2023-04-30T00:10:10;102391.84;;;13.01;56.37
66398;BME280;54877;51.504;3.894;2023-04-30T00:12:36;102406.09;;;12.98;56.45
66398;BME280;54877;51.504;3.894;2023-04-30T00:15:02;102402.59;;;12.98;56.66
66398;BME280;54877;51.504;3.894;2023-04-30T00:17:27;102389.28;;;12.98;56.57
66398;BME280;54877;51.504;3.894;2023-04-30T00:19:53;102392.84;;;12.96;56.54
66398;BME280;54877;51.504;3.894;2023-04-30T00:22:18;102395.59;;;12.95;56.55
66398;BME280;54877;51.504;3.894;2023-04-30T00:24:43;102394.81;;;12.91;56.59
66398;BME280;54877;51.504;3.894;2023-04-30T00:27:09;102387.84;;;12.87;56.66
66398;BME280;54877;51.504;3.894;2023-04-30T00:29:34;102387.97;;;12.84;56.85
66398;BME280;54877;51.504;3.894;2023-04-30T00:31:59;102385.41;;;12.81;56.87
66398;BME280;54877;51.504;3.894;2023-04-30T00:34:25;102391.66;;;12.80;56.85
66398;BME280;54877;51.504;3.894;2023-04-30T00:36:50;102390.94;;;12.75;57.18
66398;BME280;54877;51.504;3.894;2023-04-30T00:39:15;102386.72;;;12.70;57.07
66398;BME280;54877;51.504;3.894;2023-04-30T00:41:41;102391.34;;;12.63;57.52
66398;BME280;54877;51.504;3.894;2023-04-30T00:44:07;102393.25;;;12.60;57.56
66398;BME280;54877;51.504;3.894;2023-04-30T00:46:32;102388.03;;;12.57;57.62
66398;BME280;54877;51.504;3.894;2023-04-30T00:48:57;102389.06;;;12.53;57.87
66398;BME280;54877;51.504;3.894;2023-04-30T00:51:26;102391.88;;;12.48;57.94
66398;BME280;54877;51.504;3.894;2023-04-30T00:53:53;102393.75;;;12.45;57.89
66398;BME280;54877;51.504;3.894;2023-04-30T00:56:18;102396.44;;;12.43;58.22
66398;BME280;54877;51.504;3.894;2023-04-30T00:58:44;102393.75;;;12.45;58.01
66398;BME280;54877;51.504;3.894;2023-04-30T01:01:10;102401.66;;;12.46;58.01
66398;BME280;54877;51.504;3.894;2023-04-30T01:03:35;102394.53;;;12.48;57.83
66398;BME280;54877;51.504;3.894;2023-04-30T01:06:01;102392.78;;;12.47;58.05
66398;BME280;54877;51.504;3.894;2023-04-30T01:08:27;102394.56;;;12.47;58.10
66398;BME280;54877;51.504;3.894;2023-04-30T01:11:00;102394.66;;;12.44;58.50
66398;BME280;54877;51.504;3.894;2023-04-30T01:13:39;102394.84;;;12.39;58.38
66398;BME280;54877;51.504;3.894;2023-04-30T01:16:16;102395.84;;;12.35;58.30
66398;BME280;54877;51.504;3.894;2023-04-30T01:21:21;102402.19;;;12.31;58.90
66398;BME280;54877;51.504;3.894;2023-04-30T01:29:31;102403.19;;;12.27;58.58
66398;BME280;54877;51.504;3.894;2023-04-30T01:31:58;102398.91;;;12.23;58.94
66398;BME280;54877;51.504;3.894;2023-04-30T01:34:24;102405.13;;;12.22;59.09
66398;BME280;54877;51.504;3.894;2023-04-30T01:39:47;102400.00;;;12.16;59.30
66398;BME280;54877;51.504;3.894;2023-04-30T01:42:29;102404.50;;;12.14;59.45
66398;BME280;54877;51.504;3.894;2023-04-30T01:45:12;102392.03;;;12.16;59.26
66398;BME280;54877;51.504;3.894;2023-04-30T01:47:54;102400.94;;;12.15;59.39
66398;BME280;54877;51.504;3.894;2023-04-30T01:53:42;102395.72;;;12.12;59.68
66398;BME280;54877;51.504;3.894;2023-04-30T01:56:11;102401.03;;;12.12;59.76
66398;BME280;54877;51.504;3.894;2023-04-30T01:58:45;102401.22;;;12.06;60.01
66398;BME280;54877;51.504;3.894;2023-04-30T02:01:26;102403.88;;;12.06;60.07
66398;BME280;54877;51.504;3.894;2023-04-30T02:03:53;102402.94;;;12.07;60.23
66398;BME280;54877;51.504;3.894;2023-04-30T02:06:18;102409.09;;;12.09;59.99
66398;BME280;54877;51.504;3.894;2023-04-30T02:08:44;102405.59;;;12.07;60.06
66398;BME280;54877;51.504;3.894;2023-04-30T02:11:09;102410.06;;;12.05;60.21
66398;BME280;54877;51.504;3.894;2023-04-30T02:13:35;102404.03;;;12.01;60.09
66398;BME280;54877;51.504;3.894;2023-04-30T02:16:00;102411.13;;;11.99;60.34
66398;BME280;54877;51.504;3.894;2023-04-30T02:18:26;102404.03;;;12.00;60.38
66398;BME280;54877;51.504;3.894;2023-04-30T02:20:51;102401.41;;;12.00;60.37
66398;BME280;54877;51.504;3.894;2023-04-30T02:23:16;102408.44;;;12.01;60.34
66398;BME280;54877;51.504;3.894;2023-04-30T02:25:41;102408.47;;;11.99;60.13
66398;BME280;54877;51.504;3.894;2023-04-30T02:28:07;102408.53;;;11.98;60.60
66398;BME280;54877;51.504;3.894;2023-04-30T02:30:32;102402.41;;;11.96;60.69
66398;BME280;54877;51.504;3.894;2023-04-30T02:32:57;102397.13;;;11.96;60.62
66398;BME280;54877;51.504;3.894;2023-04-30T02:35:23;102396.19;;;11.97;60.78
66398;BME280;54877;51.504;3.894;2023-04-30T02:37:48;102394.41;;;11.97;60.75
66398;BME280;54877;51.504;3.894;2023-04-30T02:40:13;102397.13;;;11.94;60.78
66398;BME280;54877;51.504;3.894;2023-04-30T02:42:39;102395.50;;;11.90;61.05
66398;BME280;54877;51.504;3.894;2023-04-30T02:45:04;102399.09;;;11.88;61.24
66398;BME280;54877;51.504;3.894;2023-04-30T02:47:30;102400.03;;;11.87;61.34
66398;BME280;54877;51.504;3.894;2023-04-30T02:49:55;102399.22;;;11.85;61.49
66398;BME280;54877;51.504;3.894;2023-04-30T02:52:21;102399.31;;;11.82;61.60
66398;BME280;54877;51.504;3.894;2023-04-30T02:54:46;102401.13;;;11.79;61.60
66398;BME280;54877;51.504;3.894;2023-04-30T02:57:11;102397.63;;;11.79;61.81
66398;BME280;54877;51.504;3.894;2023-04-30T02:59:37;102395.78;;;11.81;61.54
66398;BME280;54877;51.504;3.894;2023-04-30T03:02:02;102391.25;;;11.85;61.78
66398;BME280;54877;51.504;3.894;2023-04-30T03:04:28;102398.28;;;11.86;61.22
66398;BME280;54877;51.504;3.894;2023-04-30T03:06:53;102384.22;;;11.82;61.45
66398;BME280;54877;51.504;3.894;2023-04-30T03:09:19;102390.59;;;11.76;61.73
66398;BME280;54877;51.504;3.894;2023-04-30T03:11:45;102394.22;;;11.74;61.53
66398;BME280;54877;51.504;3.894;2023-04-30T03:14:10;102392.53;;;11.71;61.77
66398;BME280;54877;51.504;3.894;2023-04-30T03:16:35;102397.00;;;11.69;61.72
66398;BME280;54877;51.504;3.894;2023-04-30T03:19:01;102391.72;;;11.69;61.64
66398;BME280;54877;51.504;3.894;2023-04-30T03:21:26;102389.97;;;11.67;61.68
66398;BME280;54877;51.504;3.894;2023-04-30T03:23:51;102398.91;;;11.64;61.97
66398;BME280;54877;51.504;3.894;2023-04-30T03:26:18;102395.44;;;11.62;61.79
66398;BME280;54877;51.504;3.894;2023-04-30T03:28:44;102397.97;;;11.65;61.70
66398;BME280;54877;51.504;3.894;2023-04-30T03:31:10;102389.91;;;11.68;61.57
66398;BME280;54877;51.504;3.894;2023-04-30T03:33:35;102388.19;;;11.67;61.44
66398;BME280;54877;51.504;3.894;2023-04-30T03:36:00;102399.72;;;11.66;61.60
66398;BME280;54877;51.504;3.894;2023-04-30T03:38:26;102387.31;;;11.67;61.44
66398;BME280;54877;51.504;3.894;2023-04-30T03:40:51;102395.31;;;11.65;61.71
66398;BME280;54877;51.504;3.894;2023-04-30T03:43:16;102392.72;;;11.64;61.85
66398;BME280;54877;51.504;3.894;2023-04-30T03:45:42;102395.31;;;11.65;61.47
66398;BME280;54877;51.504;3.894;2023-04-30T03:48:07;102392.78;;;11.62;61.45
66398;BME280;54877;51.504;3.894;2023-04-30T03:50:32;102394.66;;;11.57;61.68
66398;BME280;54877;51.504;3.894;2023-04-30T03:52:58;102395.59;;;11.56;61.70
66398;BME280;54877;51.504;3.894;2023-04-30T03:55:23;102388.56;;;11.55;61.82
66398;BME280;54877;51.504;3.894;2023-04-30T03:57:49;102387.66;;;11.56;61.77
66398;BME280;54877;51.504;3.894;2023-04-30T04:00:15;102391.19;;;11.57;61.75
66398;BME280;54877;51.504;3.894;2023-04-30T04:02:41;102388.56;;;11.55;61.59
66398;BME280;54877;51.504;3.894;2023-04-30T04:05:06;102380.66;;;11.54;61.94
66398;BME280;54877;51.504;3.894;2023-04-30T04:07:32;102380.66;;;11.54;62.11
66398;BME280;54877;51.504;3.894;2023-04-30T04:09:57;102376.31;;;11.51;62.16
66398;BME280;54877;51.504;3.894;2023-04-30T04:12:22;102373.69;;;11.50;62.31
66398;BME280;54877;51.504;3.894;2023-04-30T04:14:48;102377.16;;;11.52;62.47
66398;BME280;54877;51.504;3.894;2023-04-30T04:17:13;102381.50;;;11.54;62.10
66398;BME280;54877;51.504;3.894;2023-04-30T04:19:39;102372.63;;;11.55;61.96
66398;BME280;54877;51.504;3.894;2023-04-30T04:22:05;102385.75;;;11.60;61.69
66398;BME280;54877;51.504;3.894;2023-04-30T04:24:30;102377.75;;;11.61;61.69
66398;BME280;54877;51.504;3.894;2023-04-30T04:26:56;102382.09;;;11.64;61.72
66398;BME280;54877;51.504;3.894;2023-04-30T04:29:22;102378.56;;;11.65;61.83
66398;BME280;54877;51.504;3.894;2023-04-30T04:31:47;102381.16;;;11.66;61.78
66398;BME280;54877;51.504;3.894;2023-04-30T04:34:14;102383.81;;;11.66;61.84
66398;BME280;54877;51.504;3.894;2023-04-30T04:36:40;102391.75;;;11.66;61.89
66398;BME280;54877;51.504;3.894;2023-04-30T04:39:06;102385.56;;;11.66;62.04
66398;BME280;54877;51.504;3.894;2023-04-30T04:41:32;102389.91;;;11.68;61.87
66398;BME280;54877;51.504;3.894;2023-04-30T04:43:58;102397.88;;;11.68;62.08
66398;BME280;54877;51.504;3.894;2023-04-30T04:46:24;102400.47;;;11.71;62.12
66398;BME280;54877;51.504;3.894;2023-04-30T04:48:50;102409.28;;;11.73;62.02
66398;BME280;54877;51.504;3.894;2023-04-30T04:51:16;102409.16;;;11.76;61.92
66398;BME280;54877;51.504;3.894;2023-04-30T04:53:41;102405.63;;;11.77;61.95
66398;BME280;54877;51.504;3.894;2023-04-30T04:56:07;102406.50;;;11.76;61.75
66398;BME280;54877;51.504;3.894;2023-04-30T04:58:33;102405.63;;;11.77;61.94
66398;BME280;54877;51.504;3.894;2023-04-30T05:01:01;102400.44;;;11.73;61.95
66398;BME280;54877;51.504;3.894;2023-04-30T05:03:27;102396.94;;;11.72;62.05
66398;BME280;54877;51.504;3.894;2023-04-30T05:05:53;102405.84;;;11.68;62.23
66398;BME280;54877;51.504;3.894;2023-04-30T05:08:18;102399.22;;;11.85;62.42
66398;BME280;54877;51.504;3.894;2023-04-30T05:10:44;102405.38;;;12.14;61.77
66398;BME280;54877;51.504;3.894;2023-04-30T05:13:09;102401.66;;;12.46;61.25
66398;BME280;54877;51.504;3.894;2023-04-30T05:15:34;102402.41;;;12.77;60.44
66398;BME280;54877;51.504;3.894;2023-04-30T05:18:00;102400.47;;;13.09;59.76
66398;BME280;54877;51.504;3.894;2023-04-30T05:20:25;102402.13;;;13.36;58.94
66398;BME280;54877;51.504;3.894;2023-04-30T05:22:51;102403.78;;;13.62;58.32
66398;BME280;54877;51.504;3.894;2023-04-30T05:25:16;102396.81;;;13.82;57.86
66398;BME280;54877;51.504;3.894;2023-04-30T05:27:41;102399.16;;;13.90;57.64
66398;BME280;54877;51.504;3.894;2023-04-30T05:30:07;102390.81;;;13.99;57.51
66398;BME280;54877;51.504;3.894;2023-04-30T05:32:33;102382.53;;;14.06;57.18
66398;BME280;54877;51.504;3.894;2023-04-30T05:34:59;102386.38;;;13.99;57.32
66398;BME280;54877;51.504;3.894;2023-04-30T05:37:24;102390.28;;;14.12;57.21
66398;BME280;54877;51.504;3.894;2023-04-30T05:39:50;102394.97;;;14.06;57.31
66398;BME280;54877;51.504;3.894;2023-04-30T05:42:17;102389.06;;;13.98;57.73
66398;BME280;54877;51.504;3.894;2023-04-30T05:44:43;102389.75;;;14.03;57.82
66398;BME280;54877;51.504;3.894;2023-04-30T05:47:08;102390.75;;;14.00;57.87
66398;BME280;54877;51.504;3.894;2023-04-30T05:49:33;102395.63;;;13.89;58.17
66398;BME280;54877;51.504;3.894;2023-04-30T05:51:59;102394.06;;;13.84;58.31
66398;BME280;54877;51.504;3.894;2023-04-30T05:54:25;102388.75;;;13.84;58.57
66398;BME280;54877;51.504;3.894;2023-04-30T05:56:50;102402.13;;;13.82;58.68
66398;BME280;54877;51.504;3.894;2023-04-30T05:59:16;102399.22;;;13.65;59.00
66398;BME280;54877;51.504;3.894;2023-04-30T06:01:41;102407.69;;;13.53;59.44
66398;BME280;54877;51.504;3.894;2023-04-30T06:04:06;102403.94;;;13.59;59.70
66398;BME280;54877;51.504;3.894;2023-04-30T06:06:33;102394.72;;;13.67;59.88
66398;BME280;54877;51.504;3.894;2023-04-30T06:08:58;102398.78;;;13.77;59.35
66398;BME280;54877;51.504;3.894;2023-04-30T06:11:23;102399.81;;;13.73;59.37
66398;BME280;54877;51.504;3.894;2023-04-30T06:13:49;102403.22;;;13.77;59.75
66398;BME280;54877;51.504;3.894;2023-04-30T06:16:18;102404.38;;;13.93;59.48
66398;BME280;54877;51.504;3.894;2023-04-30T06:18:43;102407.50;;;14.04;59.46
66398;BME280;54877;51.504;3.894;2023-04-30T06:21:08;102404.16;;;14.21;59.04
66398;BME280;54877;51.504;3.894;2023-04-30T06:23:34;102400.06;;;14.35;58.84
66398;BME280;54877;51.504;3.894;2023-04-30T06:25:59;102396.44;;;14.58;58.11
66398;BME280;54877;51.504;3.894;2023-04-30T06:28:24;102389.84;;;14.66;57.70
66398;BME280;54877;51.504;3.894;2023-04-30T06:30:50;102393.66;;;14.81;57.48
66398;BME280;54877;51.504;3.894;2023-04-30T06:33:16;102396.00;;;14.89;57.13
66398;BME280;54877;51.504;3.894;2023-04-30T06:35:41;102396.19;;;14.84;57.42
66398;BME280;54877;51.504;3.894;2023-04-30T06:38:07;102387.59;;;14.98;57.36
66398;BME280;54877;51.504;3.894;2023-04-30T06:40:32;102384.59;;;15.05;57.20
66398;BME280;54877;51.504;3.894;2023-04-30T06:42:58;102385.81;;;15.18;56.62
66398;BME280;54877;51.504;3.894;2023-04-30T06:45:23;102387.13;;;15.28;56.22
66398;BME280;54877;51.504;3.894;2023-04-30T06:47:48;102393.50;;;15.45;56.15
66398;BME280;54877;51.504;3.894;2023-04-30T06:50:15;102387.44;;;15.61;55.71
66398;BME280;54877;51.504;3.894;2023-04-30T06:52:41;102395.16;;;15.67;55.01
66398;BME280;54877;51.504;3.894;2023-04-30T06:55:06;102401.94;;;15.74;55.09
66398;BME280;54877;51.504;3.894;2023-04-30T06:57:33;102400.50;;;15.67;55.32
66398;BME280;54877;51.504;3.894;2023-04-30T06:59:58;102401.75;;;15.79;55.12
66398;BME280;54877;51.504;3.894;2023-04-30T07:02:24;102397.97;;;15.83;54.86
66398;BME280;54877;51.504;3.894;2023-04-30T07:04:49;102397.59;;;15.72;54.98
66398;BME280;54877;51.504;3.894;2023-04-30T07:07:15;102396.91;;;15.68;55.28
66398;BME280;54877;51.504;3.894;2023-04-30T07:09:40;102397.78;;;15.88;55.40
66398;BME280;54877;51.504;3.894;2023-04-30T07:12:05;102398.06;;;16.00;54.77
66398;BME280;54877;51.504;3.894;2023-04-30T07:14:31;102395.22;;;16.03;54.32
66398;BME280;54877;51.504;3.894;2023-04-30T07:16:56;102392.41;;;16.06;53.64
66398;BME280;54877;51.504;3.894;2023-04-30T07:19:21;102396.97;;;16.04;53.69
66398;BME280;54877;51.504;3.894;2023-04-30T07:21:47;102393.41;;;16.22;54.10
66398;BME280;54877;51.504;3.894;2023-04-30T07:24:13;102393.47;;;16.39;54.14
66398;BME280;54877;51.504;3.894;2023-04-30T07:26:38;102399.88;;;16.35;53.28
66398;BME280;54877;51.504;3.894;2023-04-30T07:29:03;102395.03;;;16.43;52.80
66398;BME280;54877;51.504;3.894;2023-04-30T07:31:29;102399.00;;;16.35;52.80
66398;BME280;54877;51.504;3.894;2023-04-30T07:33:54;102405.25;;;16.54;53.45
66398;BME280;54877;51.504;3.894;2023-04-30T07:36:20;102406.28;;;16.50;52.04
66398;BME280;54877;51.504;3.894;2023-04-30T07:38:46;102403.59;;;16.69;52.14
66398;BME280;54877;51.504;3.894;2023-04-30T07:41:11;102409.03;;;16.84;51.92
66398;BME280;54877;51.504;3.894;2023-04-30T07:43:37;102407.69;;;16.93;51.12
66398;BME280;54877;51.504;3.894;2023-04-30T07:46:02;102408.81;;;17.06;51.50
66398;BME280;54877;51.504;3.894;2023-04-30T07:48:28;102401.25;;;17.14;50.88
66398;BME280;54877;51.504;3.894;2023-04-30T07:50:53;102406.75;;;17.11;50.52
66398;BME280;54877;51.504;3.894;2023-04-30T07:53:19;102395.44;;;17.06;50.84
66398;BME280;54877;51.504;3.894;2023-04-30T07:55:44;102404.13;;;17.10;50.61
66398;BME280;54877;51.504;3.894;2023-04-30T07:58:10;102401.34;;;16.95;50.50
66398;BME280;54877;51.504;3.894;2023-04-30T08:00:35;102398.09;;;17.06;50.70
66398;BME280;54877;51.504;3.894;2023-04-30T08:03:01;102407.38;;;16.99;50.48
66398;BME280;54877;51.504;3.894;2023-04-30T08:05:26;102399.59;;;17.12;50.77
66398;BME280;54877;51.504;3.894;2023-04-30T08:07:52;102397.28;;;17.21;51.27
66398;BME280;54877;51.504;3.894;2023-04-30T08:10:17;102404.06;;;17.28;50.76
66398;BME280;54877;51.504;3.894;2023-04-30T08:12:42;102402.75;;;17.52;51.16
66398;BME280;54877;51.504;3.894;2023-04-30T08:15:08;102398.81;;;17.59;50.24
66398;BME280;54877;51.504;3.894;2023-04-30T08:17:34;102411.88;;;17.66;50.33
66398;BME280;54877;51.504;3.894;2023-04-30T08:20:00;102406.88;;;17.42;49.88
66398;BME280;54877;51.504;3.894;2023-04-30T08:22:27;102398.63;;;17.63;49.95
66398;BME280;54877;51.504;3.894;2023-04-30T08:24:53;102400.72;;;17.73;49.88
66398;BME280;54877;51.504;3.894;2023-04-30T08:27:19;102403.78;;;17.67;49.69
66398;BME280;54877;51.504;3.894;2023-04-30T08:29:45;102398.63;;;17.63;49.71
66398;BME280;54877;51.504;3.894;2023-04-30T08:32:10;102406.28;;;17.53;49.53
66398;BME280;54877;51.504;3.894;2023-04-30T08:34:36;102406.53;;;17.48;49.77
66398;BME280;54877;51.504;3.894;2023-04-30T08:37:01;102398.59;;;17.47;49.60
66398;BME280;54877;51.504;3.894;2023-04-30T08:39:26;102401.94;;;17.68;49.77
66398;BME280;54877;51.504;3.894;2023-04-30T08:41:55;102401.28;;;17.80;49.59
66398;BME280;54877;51.504;3.894;2023-04-30T08:44:22;102402.66;;;17.87;49.36
66398;BME280;54877;51.504;3.894;2023-04-30T08:46:54;102405.25;;;18.04;49.56
66398;BME280;54877;51.504;3.894;2023-04-30T08:49:21;102398.03;;;18.06;48.60
66398;BME280;54877;51.504;3.894;2023-04-30T08:51:48;102410.72;;;18.18;49.25
66398;BME280;54877;51.504;3.894;2023-04-30T08:54:14;102401.38;;;18.25;48.76
66398;BME280;54877;51.504;3.894;2023-04-30T08:56:41;102399.06;;;18.19;48.13
66398;BME280;54877;51.504;3.894;2023-04-30T08:59:06;102401.63;;;18.20;48.20
66398;BME280;54877;51.504;3.894;2023-04-30T09:01:33;102390.53;;;18.42;47.89
66398;BME280;54877;51.504;3.894;2023-04-30T09:03:59;102387.41;;;18.65;47.66
66398;BME280;54877;51.504;3.894;2023-04-30T09:06:27;102400.72;;;18.83;46.96
66398;BME280;54877;51.504;3.894;2023-04-30T09:08:52;102393.06;;;18.91;46.77
66398;BME280;54877;51.504;3.894;2023-04-30T09:14:00;102389.84;;;19.28;46.05
66398;BME280;54877;51.504;3.894;2023-04-30T09:16:27;102389.16;;;19.40;45.73
66398;BME280;54877;51.504;3.894;2023-04-30T09:18:57;102387.13;;;19.44;45.91
66398;BME280;54877;51.504;3.894;2023-04-30T09:21:35;102381.38;;;19.50;45.28
66398;BME280;54877;51.504;3.894;2023-04-30T09:24:02;102382.53;;;19.60;45.19
66398;BME280;54877;51.504;3.894;2023-04-30T09:26:33;102379.47;;;19.66;44.59
66398;BME280;54877;51.504;3.894;2023-04-30T09:29:00;102376.28;;;19.73;44.29
66398;BME280;54877;51.504;3.894;2023-04-30T09:31:31;102378.84;;;19.61;44.70
66398;BME280;54877;51.504;3.894;2023-04-30T09:33:58;102375.72;;;19.68;45.17
66398;BME280;54877;51.504;3.894;2023-04-30T09:36:23;102370.53;;;19.51;43.43
66398;BME280;54877;51.504;3.894;2023-04-30T09:38:48;102374.34;;;19.61;44.02
66398;BME280;54877;51.504;3.894;2023-04-30T09:41:24;102377.59;;;19.66;43.91
66398;BME280;54877;51.504;3.894;2023-04-30T09:43:51;102372.66;;;19.74;44.28
66398;BME280;54877;51.504;3.894;2023-04-30T09:46:18;102371.75;;;19.88;44.09
66398;BME280;54877;51.504;3.894;2023-04-30T09:48:45;102366.81;;;19.94;44.65
66398;BME280;54877;51.504;3.894;2023-04-30T09:51:11;102364.78;;;19.71;44.12
66398;BME280;54877;51.504;3.894;2023-04-30T09:53:36;102363.78;;;19.86;43.69
66398;BME280;54877;51.504;3.894;2023-04-30T09:56:04;102365.41;;;19.89;42.67
66398;BME280;54877;51.504;3.894;2023-04-30T09:58:34;102368.94;;;19.89;43.31
66398;BME280;54877;51.504;3.894;2023-04-30T10:01:02;102367.03;;;19.91;42.39
66398;BME280;54877;51.504;3.894;2023-04-30T10:03:31;102358.00;;;19.92;43.24
66398;BME280;54877;51.504;3.894;2023-04-30T10:05:57;102369.88;;;20.03;42.54
66398;BME280;54877;51.504;3.894;2023-04-30T10:08:26;102352.28;;;20.11;42.52
66398;BME280;54877;51.504;3.894;2023-04-30T10:10:57;102359.63;;;20.22;42.05
66398;BME280;54877;51.504;3.894;2023-04-30T10:13:27;102360.47;;;20.10;41.09
66398;BME280;54877;51.504;3.894;2023-04-30T10:15:56;102359.25;;;20.01;40.76
66398;BME280;54877;51.504;3.894;2023-04-30T10:18:27;102361.28;;;19.69;40.60
66398;BME280;54877;51.504;3.894;2023-04-30T10:20:55;102361.44;;;19.94;41.22
66398;BME280;54877;51.504;3.894;2023-04-30T10:23:21;102356.25;;;19.91;41.25
66398;BME280;54877;51.504;3.894;2023-04-30T10:25:47;102353.31;;;19.96;42.62
66398;BME280;54877;51.504;3.894;2023-04-30T10:28:13;102359.94;;;19.90;42.66
66398;BME280;54877;51.504;3.894;2023-04-30T10:30:40;102363.38;;;19.92;42.32
66398;BME280;54877;51.504;3.894;2023-04-30T10:36:05;102359.13;;;20.03;43.02
66398;BME280;54877;51.504;3.894;2023-04-30T10:38:35;102344.69;;;20.18;43.92
66398;BME280;54877;51.504;3.894;2023-04-30T10:41:04;102346.56;;;20.30;43.14
66398;BME280;54877;51.504;3.894;2023-04-30T10:43:31;102349.88;;;20.47;43.19
66398;BME280;54877;51.504;3.894;2023-04-30T10:45:59;102338.94;;;20.63;42.52
66398;BME280;54877;51.504;3.894;2023-04-30T10:48:24;102347.25;;;20.60;42.99
66398;BME280;54877;51.504;3.894;2023-04-30T10:50:51;102339.19;;;20.73;42.91
66398;BME280;54877;51.504;3.894;2023-04-30T10:53:19;102340.03;;;20.86;42.91
66398;BME280;54877;51.504;3.894;2023-04-30T10:58:24;102317.00;;;20.94;42.08
66398;BME280;54877;51.504;3.894;2023-04-30T11:00:58;102322.59;;;20.91;42.73
66398;BME280;54877;51.504;3.894;2023-04-30T11:03:26;102308.28;;;20.91;42.70
66398;BME280;54877;51.504;3.894;2023-04-30T11:05:52;102302.81;;;20.92;43.90
66398;BME280;54877;51.504;3.894;2023-04-30T11:08:18;102308.72;;;20.85;43.44
66398;BME280;54877;51.504;3.894;2023-04-30T11:10:57;102305.38;;;20.81;43.23
66398;BME280;54877;51.504;3.894;2023-04-30T11:13:25;102301.94;;;20.79;43.29
66398;BME280;54877;51.504;3.894;2023-04-30T11:15:51;102308.38;;;20.77;43.74
66398;BME280;54877;51.504;3.894;2023-04-30T11:18:17;102292.47;;;20.86;43.68
66398;BME280;54877;51.504;3.894;2023-04-30T11:20:48;102292.00;;;20.80;43.38
66398;BME280;54877;51.504;3.894;2023-04-30T11:23:22;102289.66;;;20.63;43.99
66398;BME280;54877;51.504;3.894;2023-04-30T11:25:48;102293.63;;;20.70;43.15
66398;BME280;54877;51.504;3.894;2023-04-30T11:28:22;102289.19;;;20.56;43.91
66398;BME280;54877;51.504;3.894;2023-04-30T11:30:56;102282.75;;;20.71;43.56
66398;BME280;54877;51.504;3.894;2023-04-30T11:33:23;102281.81;;;20.85;43.72
66398;BME280;54877;51.504;3.894;2023-04-30T11:35:51;102276.72;;;20.80;43.49
66398;BME280;54877;51.504;3.894;2023-04-30T11:38:21;102279.38;;;20.42;42.95
66398;BME280;54877;51.504;3.894;2023-04-30T11:40:51;102275.06;;;20.40;43.43
66398;BME280;54877;51.504;3.894;2023-04-30T11:43:36;102266.13;;;20.39;43.46
66398;BME280;54877;51.504;3.894;2023-04-30T11:46:02;102260.34;;;20.45;43.12
66398;BME280;54877;51.504;3.894;2023-04-30T11:48:39;102268.97;;;20.63;43.05
66398;BME280;54877;51.504;3.894;2023-04-30T11:51:22;102257.34;;;20.63;43.02
66398;BME280;54877;51.504;3.894;2023-04-30T11:53:49;102253.13;;;20.71;42.54
66398;BME280;54877;51.504;3.894;2023-04-30T11:56:17;102250.78;;;20.67;42.82
66398;BME280;54877;51.504;3.894;2023-04-30T11:58:46;102251.53;;;20.56;41.94
66398;BME280;54877;51.504;3.894;2023-04-30T12:01:13;102242.50;;;20.57;41.92
66398;BME280;54877;51.504;3.894;2023-04-30T12:03:43;102244.63;;;20.52;42.32
66398;BME280;54877;51.504;3.894;2023-04-30T12:06:26;102241.41;;;20.60;42.66
66398;BME280;54877;51.504;3.894;2023-04-30T12:08:52;102252.69;;;20.52;41.65
66398;BME280;54877;51.504;3.894;2023-04-30T12:11:22;102248.72;;;20.45;41.86
66398;BME280;54877;51.504;3.894;2023-04-30T12:13:59;102239.81;;;20.57;42.46
66398;BME280;54877;51.504;3.894;2023-04-30T12:16:27;102238.72;;;20.72;41.79
66398;BME280;54877;51.504;3.894;2023-04-30T12:19:03;102234.84;;;20.89;41.71
66398;BME280;54877;51.504;3.894;2023-04-30T12:21:28;102228.91;;;20.96;40.94
66398;BME280;54877;51.504;3.894;2023-04-30T12:23:53;102236.03;;;20.85;40.34
66398;BME280;54877;51.504;3.894;2023-04-30T12:26:19;102229.38;;;20.90;40.54
66398;BME280;54877;51.504;3.894;2023-04-30T12:28:47;102222.47;;;21.12;40.57
66398;BME280;54877;51.504;3.894;2023-04-30T12:31:13;102215.56;;;20.95;40.52
66398;BME280;54877;51.504;3.894;2023-04-30T12:33:42;102224.59;;;20.94;40.34
66398;BME280;54877;51.504;3.894;2023-04-30T12:36:10;102220.41;;;20.90;40.46
66398;BME280;54877;51.504;3.894;2023-04-30T12:38:38;102218.13;;;20.96;40.07
66398;BME280;54877;51.504;3.894;2023-04-30T12:41:10;102221.13;;;21.04;40.08
66398;BME280;54877;51.504;3.894;2023-04-30T12:43:37;102213.84;;;21.06;40.29
66398;BME280;54877;51.504;3.894;2023-04-30T12:46:02;102212.09;;;21.05;40.40
66398;BME280;54877;51.504;3.894;2023-04-30T12:48:28;102213.31;;;20.89;40.36
66398;BME280;54877;51.504;3.894;2023-04-30T12:51:00;102207.50;;;21.07;40.54
66398;BME280;54877;51.504;3.894;2023-04-30T12:53:30;102210.72;;;20.87;40.46
66398;BME280;54877;51.504;3.894;2023-04-30T12:56:05;102207.63;;;20.68;40.71
66398;BME280;54877;51.504;3.894;2023-04-30T12:58:39;102201.38;;;20.68;41.20
66398;BME280;54877;51.504;3.894;2023-04-30T13:01:09;102205.66;;;20.58;41.35
66398;BME280;54877;51.504;3.894;2023-04-30T13:03:36;102205.47;;;20.73;41.13
66398;BME280;54877;51.504;3.894;2023-04-30T13:06:02;102199.44;;;20.70;40.96
66398;BME280;54877;51.504;3.894;2023-04-30T13:08:28;102198.66;;;20.80;40.99
66398;BME280;54877;51.504;3.894;2023-04-30T13:10:54;102190.38;;;20.83;41.33